sensor_id;sensor_type;location;lat;lon;timestamp;temperature;humidity
4374;DHT22;2201;51.100;6.814;2023-06-10T00:01:17;21.40;88.40
4374;DHT22;2201;51.100;6.814;2023-06-10T00:03:44;21.30;88.50
4374;DHT22;2201;51.100;6.814;2023-06-10T00:06:12;21.30;88.40
4374;DHT22;2201;51.100;6.814;2023-06-10T00:08:39;21.20;88.90
4374;DHT22;2201;51.100;6.814;2023-06-10T00:11:06;21.20;89.20
4374;DHT22;2201;51.100;6.814;2023-06-10T00:13:33;21.10;88.90
4374;DHT22;2201;51.100;6.814;2023-06-10T00:16:00;21.10;89.60
4374;DHT22;2201;51.100;6.814;2023-06-10T00:18:26;21.10;89.90
4374;DHT22;2201;51.100;6.814;2023-06-10T00:20:54;21.00;89.80
4374;DHT22;2201;51.100;6.814;2023-06-10T00:23:26;21.00;90.20
4374;DHT22;2201;51.100;6.814;2023-06-10T00:25:56;20.90;90.00
4374;DHT22;2201;51.100;6.814;2023-06-10T00:28:23;20.90;90.50
4374;DHT22;2201;51.100;6.814;2023-06-10T00:30:50;20.80;90.10
4374;DHT22;2201;51.100;6.814;2023-06-10T00:33:17;20.80;90.20
4374;DHT22;2201;51.100;6.814;2023-06-10T00:35:44;20.80;90.50
4374;DHT22;2201;51.100;6.814;2023-06-10T00:38:12;20.70;90.90
4374;DHT22;2201;51.100;6.814;2023-06-10T00:40:43;20.70;90.90
4374;DHT22;2201;51.100;6.814;2023-06-10T00:43:10;20.70;91.00
4374;DHT22;2201;51.100;6.814;2023-06-10T00:45:37;20.60;91.90
4374;DHT22;2201;51.100;6.814;2023-06-10T00:48:04;20.60;91.50
4374;DHT22;2201;51.100;6.814;2023-06-10T00:50:31;20.50;91.60
4374;DHT22;2201;51.100;6.814;2023-06-10T00:53:00;20.50;92.40
4374;DHT22;2201;51.100;6.814;2023-06-10T00:55:27;20.50;92.20
4374;DHT22;2201;51.100;6.814;2023-06-10T00:57:57;20.40;91.80
4374;DHT22;2201;51.100;6.814;2023-06-10T01:00:24;20.40;92.00
4374;DHT22;2201;51.100;6.814;2023-06-10T01:02:51;20.30;92.00
4374;DHT22;2201;51.100;6.814;2023-06-10T01:05:19;20.30;92.80
4374;DHT22;2201;51.100;6.814;2023-06-10T01:07:52;20.30;92.60
4374;DHT22;2201;51.100;6.814;2023-06-10T01:10:28;20.20;92.40
4374;DHT22;2201;51.100;6.814;2023-06-10T01:13:02;20.20;93.30
4374;DHT22;2201;51.100;6.814;2023-06-10T01:15:37;20.10;92.90
4374;DHT22;2201;51.100;6.814;2023-06-10T01:18:06;20.10;93.20
4374;DHT22;2201;51.100;6.814;2023-06-10T01:20:43;20.10;93.40
4374;DHT22;2201;51.100;6.814;2023-06-10T01:23:13;20.00;93.90
4374;DHT22;2201;51.100;6.814;2023-06-10T01:25:44;20.00;94.40
4374;DHT22;2201;51.100;6.814;2023-06-10T01:28:15;20.00;94.10
4374;DHT22;2201;51.100;6.814;2023-06-10T01:30:47;19.90;93.80
4374;DHT22;2201;51.100;6.814;2023-06-10T01:33:24;19.90;94.00
4374;DHT22;2201;51.100;6.814;2023-06-10T01:35:53;19.80;94.20
4374;DHT22;2201;51.100;6.814;2023-06-10T01:38:23;19.80;94.20
4374;DHT22;2201;51.100;6.814;2023-06-10T01:40:52;19.80;94.70
4374;DHT22;2201;51.100;6.814;2023-06-10T01:43:20;19.80;94.50
4374;DHT22;2201;51.100;6.814;2023-06-10T01:45:48;19.70;94.60
4374;DHT22;2201;51.100;6.814;2023-06-10T01:48:16;19.70;94.70
4374;DHT22;2201;51.100;6.814;2023-06-10T01:50:46;19.60;95.20
4374;DHT22;2201;51.100;6.814;2023-06-10T01:53:15;19.60;95.60
4374;DHT22;2201;51.100;6.814;2023-06-10T01:55:43;19.60;96.30
4374;DHT22;2201;51.100;6.814;2023-06-10T01:58:13;19.50;96.80
4374;DHT22;2201;51.100;6.814;2023-06-10T02:00:41;19.50;96.40
4374;DHT22;2201;51.100;6.814;2023-06-10T02:03:08;19.50;96.90
4374;DHT22;2201;51.100;6.814;2023-06-10T02:05:38;19.40;96.50
4374;DHT22;2201;51.100;6.814;2023-06-10T02:08:08;19.40;96.90
4374;DHT22;2201;51.100;6.814;2023-06-10T02:10:35;19.40;97.70
4374;DHT22;2201;51.100;6.814;2023-06-10T02:13:03;19.40;97.80
4374;DHT22;2201;51.100;6.814;2023-06-10T02:15:31;19.30;97.20
4374;DHT22;2201;51.100;6.814;2023-06-10T02:17:58;19.30;97.80
4374;DHT22;2201;51.100;6.814;2023-06-10T02:20:26;19.30;97.40
4374;DHT22;2201;51.100;6.814;2023-06-10T02:22:52;19.20;97.70
4374;DHT22;2201;51.100;6.814;2023-06-10T02:25:19;19.20;97.90
4374;DHT22;2201;51.100;6.814;2023-06-10T02:27:48;19.20;98.00
4374;DHT22;2201;51.100;6.814;2023-06-10T02:30:16;19.10;98.20
4374;DHT22;2201;51.100;6.814;2023-06-10T02:32:44;19.10;98.20
4374;DHT22;2201;51.100;6.814;2023-06-10T02:35:13;19.10;98.20
4374;DHT22;2201;51.100;6.814;2023-06-10T02:37:40;19.10;98.20
4374;DHT22;2201;51.100;6.814;2023-06-10T02:40:10;19.10;98.20
4374;DHT22;2201;51.100;6.814;2023-06-10T02:42:37;19.00;98.20
4374;DHT22;2201;51.100;6.814;2023-06-10T02:45:05;19.00;98.20
4374;DHT22;2201;51.100;6.814;2023-06-10T02:47:34;19.00;98.20
4374;DHT22;2201;51.100;6.814;2023-06-10T02:50:01;19.00;98.20
4374;DHT22;2201;51.100;6.814;2023-06-10T02:52:29;19.00;98.20
4374;DHT22;2201;51.100;6.814;2023-06-10T02:54:57;18.90;98.20
4374;DHT22;2201;51.100;6.814;2023-06-10T02:57:24;18.90;98.20
4374;DHT22;2201;51.100;6.814;2023-06-10T02:59:50;18.80;98.20
4374;DHT22;2201;51.100;6.814;2023-06-10T03:02:19;18.80;98.20
4374;DHT22;2201;51.100;6.814;2023-06-10T03:04:47;18.80;98.20
4374;DHT22;2201;51.100;6.814;2023-06-10T03:07:16;18.80;98.20
4374;DHT22;2201;51.100;6.814;2023-06-10T03:09:44;18.70;98.20
4374;DHT22;2201;51.100;6.814;2023-06-10T03:12:11;18.70;98.20
4374;DHT22;2201;51.100;6.814;2023-06-10T03:14:37;18.70;98.20
4374;DHT22;2201;51.100;6.814;2023-06-10T03:19:33;18.60;98.20
4374;DHT22;2201;51.100;6.814;2023-06-10T03:22:09;18.60;98.20
4374;DHT22;2201;51.100;6.814;2023-06-10T03:24:37;18.60;98.20
4374;DHT22;2201;51.100;6.814;2023-06-10T03:27:08;18.60;98.20
4374;DHT22;2201;51.100;6.814;2023-06-10T03:29:36;18.60;98.20
4374;DHT22;2201;51.100;6.814;2023-06-10T03:32:03;18.50;98.20
4374;DHT22;2201;51.100;6.814;2023-06-10T03:34:30;18.50;98.20
4374;DHT22;2201;51.100;6.814;2023-06-10T03:36:57;18.50;98.20
4374;DHT22;2201;51.100;6.814;2023-06-10T03:39:26;18.50;98.20
4374;DHT22;2201;51.100;6.814;2023-06-10T03:41:54;18.50;98.20
4374;DHT22;2201;51.100;6.814;2023-06-10T03:44:21;18.50;98.20
4374;DHT22;2201;51.100;6.814;2023-06-10T03:46:48;18.50;98.20
4374;DHT22;2201;51.100;6.814;2023-06-10T03:49:14;18.40;98.20
4374;DHT22;2201;51.100;6.814;2023-06-10T03:51:41;18.40;98.20
4374;DHT22;2201;51.100;6.814;2023-06-10T03:54:08;18.40;98.20
4374;DHT22;2201;51.100;6.814;2023-06-10T03:56:36;18.40;98.20
4374;DHT22;2201;51.100;6.814;2023-06-10T03:59:03;18.40;98.20
4374;DHT22;2201;51.100;6.814;2023-06-10T04:01:31;18.40;98.20
4374;DHT22;2201;51.100;6.814;2023-06-10T04:03:58;18.40;98.20
4374;DHT22;2201;51.100;6.814;2023-06-10T04:06:26;18.40;98.20
4374;DHT22;2201;51.100;6.814;2023-06-10T04:08:54;18.40;98.20
4374;DHT22;2201;51.100;6.814;2023-06-10T04:11:22;18.40;98.20
4374;DHT22;2201;51.100;6.814;2023-06-10T04:13:50;18.50;98.20
4374;DHT22;2201;51.100;6.814;2023-06-10T04:16:17;18.50;98.20
4374;DHT22;2201;51.100;6.814;2023-06-10T04:18:44;18.50;98.20
4374;DHT22;2201;51.100;6.814;2023-06-10T04:21:11;18.50;98.20
4374;DHT22;2201;51.100;6.814;2023-06-10T04:23:37;18.60;98.20
4374;DHT22;2201;51.100;6.814;2023-06-10T04:26:06;18.60;98.20
4374;DHT22;2201;51.100;6.814;2023-06-10T04:28:34;18.70;98.20
4374;DHT22;2201;51.100;6.814;2023-06-10T04:31:03;18.70;98.20
4374;DHT22;2201;51.100;6.814;2023-06-10T04:33:30;18.70;98.20
4374;DHT22;2201;51.100;6.814;2023-06-10T04:35:57;18.80;98.20
4374;DHT22;2201;51.100;6.814;2023-06-10T04:38:24;18.90;98.20
4374;DHT22;2201;51.100;6.814;2023-06-10T04:40:52;19.00;98.20
4374;DHT22;2201;51.100;6.814;2023-06-10T04:43:18;19.00;98.20
4374;DHT22;2201;51.100;6.814;2023-06-10T04:45:45;19.10;98.20
4374;DHT22;2201;51.100;6.814;2023-06-10T04:48:13;19.30;98.20
4374;DHT22;2201;51.100;6.814;2023-06-10T04:50:40;19.40;98.20
4374;DHT22;2201;51.100;6.814;2023-06-10T04:53:07;19.60;98.20
4374;DHT22;2201;51.100;6.814;2023-06-10T04:55:34;19.70;98.20
4374;DHT22;2201;51.100;6.814;2023-06-10T04:58:01;19.90;98.20
4374;DHT22;2201;51.100;6.814;2023-06-10T05:00:28;20.10;98.20
4374;DHT22;2201;51.100;6.814;2023-06-10T05:02:55;20.20;98.20
4374;DHT22;2201;51.100;6.814;2023-06-10T05:05:23;20.30;98.20
4374;DHT22;2201;51.100;6.814;2023-06-10T05:07:50;20.50;98.20
4374;DHT22;2201;51.100;6.814;2023-06-10T05:10:17;20.60;98.20
4374;DHT22;2201;51.100;6.814;2023-06-10T05:12:43;20.80;98.20
4374;DHT22;2201;51.100;6.814;2023-06-10T05:15:11;20.90;98.20
4374;DHT22;2201;51.100;6.814;2023-06-10T05:17:38;21.10;98.20
4374;DHT22;2201;51.100;6.814;2023-06-10T05:20:05;21.20;98.20
4374;DHT22;2201;51.100;6.814;2023-06-10T05:22:34;21.40;98.10
4374;DHT22;2201;51.100;6.814;2023-06-10T05:25:01;21.60;97.80
4374;DHT22;2201;51.100;6.814;2023-06-10T05:27:28;21.80;96.30
4374;DHT22;2201;51.100;6.814;2023-06-10T05:29:55;22.00;96.10
4374;DHT22;2201;51.100;6.814;2023-06-10T05:32:22;22.10;96.10
4374;DHT22;2201;51.100;6.814;2023-06-10T05:34:48;22.20;95.50
4374;DHT22;2201;51.100;6.814;2023-06-10T05:44:57;23.00;93.50
4374;DHT22;2201;51.100;6.814;2023-06-10T05:47:24;23.10;93.10
4374;DHT22;2201;51.100;6.814;2023-06-10T05:49:51;23.20;93.10
4374;DHT22;2201;51.100;6.814;2023-06-10T05:52:18;23.40;92.40
4374;DHT22;2201;51.100;6.814;2023-06-10T05:54:44;23.50;92.00
4374;DHT22;2201;51.100;6.814;2023-06-10T05:57:11;23.70;91.20
4374;DHT22;2201;51.100;6.814;2023-06-10T05:59:38;23.80;91.00
4374;DHT22;2201;51.100;6.814;2023-06-10T06:02:07;23.90;90.50
4374;DHT22;2201;51.100;6.814;2023-06-10T06:04:34;24.00;89.40
4374;DHT22;2201;51.100;6.814;2023-06-10T06:07:00;24.20;89.50
4374;DHT22;2201;51.100;6.814;2023-06-10T06:09:27;24.30;86.30
4374;DHT22;2201;51.100;6.814;2023-06-10T06:11:54;24.30;85.70
4374;DHT22;2201;51.100;6.814;2023-06-10T06:14:21;24.50;85.00
4374;DHT22;2201;51.100;6.814;2023-06-10T06:16:48;24.60;84.70
4374;DHT22;2201;51.100;6.814;2023-06-10T06:19:16;24.70;83.00
4374;DHT22;2201;51.100;6.814;2023-06-10T06:21:43;24.90;83.70
4374;DHT22;2201;51.100;6.814;2023-06-10T06:24:10;25.10;84.30
4374;DHT22;2201;51.100;6.814;2023-06-10T06:26:37;25.30;82.50
4374;DHT22;2201;51.100;6.814;2023-06-10T06:29:09;25.50;82.70
4374;DHT22;2201;51.100;6.814;2023-06-10T06:31:43;25.60;82.90
4374;DHT22;2201;51.100;6.814;2023-06-10T06:34:13;25.70;82.60
4374;DHT22;2201;51.100;6.814;2023-06-10T06:37:01;25.80;80.60
4374;DHT22;2201;51.100;6.814;2023-06-10T06:39:31;25.90;79.30
4374;DHT22;2201;51.100;6.814;2023-06-10T06:42:01;26.10;76.80
4374;DHT22;2201;51.100;6.814;2023-06-10T06:44:45;26.30;77.80
4374;DHT22;2201;51.100;6.814;2023-06-10T06:47:18;26.50;76.10
4374;DHT22;2201;51.100;6.814;2023-06-10T06:49:45;26.50;75.80
4374;DHT22;2201;51.100;6.814;2023-06-10T06:52:14;26.60;77.00
4374;DHT22;2201;51.100;6.814;2023-06-10T06:55:02;26.80;75.60
4374;DHT22;2201;51.100;6.814;2023-06-10T06:57:29;26.90;76.40
4374;DHT22;2201;51.100;6.814;2023-06-10T06:59:56;27.00;75.50
4374;DHT22;2201;51.100;6.814;2023-06-10T07:02:23;27.10;75.00
4374;DHT22;2201;51.100;6.814;2023-06-10T07:04:50;27.20;75.80
4374;DHT22;2201;51.100;6.814;2023-06-10T07:07:21;27.40;72.60
4374;DHT22;2201;51.100;6.814;2023-06-10T07:09:48;27.60;73.50
4374;DHT22;2201;51.100;6.814;2023-06-10T07:12:15;27.70;72.60
4374;DHT22;2201;51.100;6.814;2023-06-10T07:14:43;27.90;70.70
4374;DHT22;2201;51.100;6.814;2023-06-10T07:17:10;28.10;72.40
4374;DHT22;2201;51.100;6.814;2023-06-10T07:19:37;28.20;71.80
4374;DHT22;2201;51.100;6.814;2023-06-10T07:22:06;28.20;72.60
4374;DHT22;2201;51.100;6.814;2023-06-10T07:24:36;28.30;71.20
4374;DHT22;2201;51.100;6.814;2023-06-10T07:27:03;28.40;71.10
4374;DHT22;2201;51.100;6.814;2023-06-10T07:29:31;28.40;70.90
4374;DHT22;2201;51.100;6.814;2023-06-10T07:31:58;28.50;70.90
4374;DHT22;2201;51.100;6.814;2023-06-10T07:34:24;28.50;71.40
4374;DHT22;2201;51.100;6.814;2023-06-10T07:36:51;28.50;69.30
4374;DHT22;2201;51.100;6.814;2023-06-10T07:39:18;28.60;69.40
4374;DHT22;2201;51.100;6.814;2023-06-10T07:41:47;28.70;70.40
4374;DHT22;2201;51.100;6.814;2023-06-10T07:44:14;28.70;69.60
4374;DHT22;2201;51.100;6.814;2023-06-10T07:46:41;28.90;69.10
4374;DHT22;2201;51.100;6.814;2023-06-10T07:49:08;29.00;68.30
4374;DHT22;2201;51.100;6.814;2023-06-10T07:51:35;29.00;69.10
4374;DHT22;2201;51.100;6.814;2023-06-10T07:54:02;29.20;70.10
4374;DHT22;2201;51.100;6.814;2023-06-10T07:56:31;29.30;68.40
4374;DHT22;2201;51.100;6.814;2023-06-10T07:58:59;29.50;68.40
4374;DHT22;2201;51.100;6.814;2023-06-10T08:01:26;29.50;67.30
4374;DHT22;2201;51.100;6.814;2023-06-10T08:03:53;29.60;67.90
4374;DHT22;2201;51.100;6.814;2023-06-10T08:06:20;29.80;68.90
4374;DHT22;2201;51.100;6.814;2023-06-10T08:08:46;29.90;68.00
4374;DHT22;2201;51.100;6.814;2023-06-10T08:11:16;30.00;68.10
4374;DHT22;2201;51.100;6.814;2023-06-10T08:13:49;30.10;66.70
4374;DHT22;2201;51.100;6.814;2023-06-10T08:16:23;30.30;66.60
4374;DHT22;2201;51.100;6.814;2023-06-10T08:19:10;30.40;66.20
4374;DHT22;2201;51.100;6.814;2023-06-10T08:21:37;30.40;66.40
4374;DHT22;2201;51.100;6.814;2023-06-10T08:24:05;30.40;67.50
4374;DHT22;2201;51.100;6.814;2023-06-10T08:26:35;30.40;67.10
4374;DHT22;2201;51.100;6.814;2023-06-10T08:29:04;30.60;66.50
4374;DHT22;2201;51.100;6.814;2023-06-10T08:31:32;30.80;65.80
4374;DHT22;2201;51.100;6.814;2023-06-10T08:34:00;30.80;65.80
4374;DHT22;2201;51.100;6.814;2023-06-10T08:37:33;30.90;67.20
4374;DHT22;2201;51.100;6.814;2023-06-10T08:39:52;31.00;66.70
4374;DHT22;2201;51.100;6.814;2023-06-10T08:42:28;31.00;66.50
4374;DHT22;2201;51.100;6.814;2023-06-10T08:44:56;31.10;66.50
4374;DHT22;2201;51.100;6.814;2023-06-10T08:47:25;31.20;65.70
4374;DHT22;2201;51.100;6.814;2023-06-10T08:49:55;31.40;65.20
4374;DHT22;2201;51.100;6.814;2023-06-10T08:52:26;31.50;65.90
4374;DHT22;2201;51.100;6.814;2023-06-10T08:54:59;31.70;64.70
4374;DHT22;2201;51.100;6.814;2023-06-10T08:57:26;31.90;64.40
4374;DHT22;2201;51.100;6.814;2023-06-10T08:59:53;32.10;65.50
4374;DHT22;2201;51.100;6.814;2023-06-10T09:02:20;32.30;64.20
4374;DHT22;2201;51.100;6.814;2023-06-10T09:04:49;32.30;63.90
4374;DHT22;2201;51.100;6.814;2023-06-10T09:07:19;32.40;63.50
4374;DHT22;2201;51.100;6.814;2023-06-10T09:09:46;32.50;64.30
4374;DHT22;2201;51.100;6.814;2023-06-10T09:12:14;32.70;64.70
4374;DHT22;2201;51.100;6.814;2023-06-10T09:14:41;32.80;63.20
4374;DHT22;2201;51.100;6.814;2023-06-10T09:17:08;32.90;63.50
4374;DHT22;2201;51.100;6.814;2023-06-10T09:19:36;33.10;63.50
4374;DHT22;2201;51.100;6.814;2023-06-10T09:22:06;33.20;62.50
4374;DHT22;2201;51.100;6.814;2023-06-10T09:24:33;33.20;64.40
4374;DHT22;2201;51.100;6.814;2023-06-10T09:27:03;33.20;62.50
4374;DHT22;2201;51.100;6.814;2023-06-10T09:29:32;33.30;63.30
4374;DHT22;2201;51.100;6.814;2023-06-10T09:31:58;33.40;63.50
4374;DHT22;2201;51.100;6.814;2023-06-10T09:34:26;33.50;64.40
4374;DHT22;2201;51.100;6.814;2023-06-10T09:36:53;33.70;63.80
4374;DHT22;2201;51.100;6.814;2023-06-10T09:39:22;33.80;62.10
4374;DHT22;2201;51.100;6.814;2023-06-10T09:41:49;34.00;62.30
4374;DHT22;2201;51.100;6.814;2023-06-10T09:44:19;34.10;64.00
4374;DHT22;2201;51.100;6.814;2023-06-10T09:46:46;34.20;62.90
4374;DHT22;2201;51.100;6.814;2023-06-10T09:49:14;34.30;61.80
4374;DHT22;2201;51.100;6.814;2023-06-10T09:51:52;34.40;63.00
4374;DHT22;2201;51.100;6.814;2023-06-10T09:54:19;34.50;61.90
4374;DHT22;2201;51.100;6.814;2023-06-10T09:56:48;34.60;61.50
4374;DHT22;2201;51.100;6.814;2023-06-10T09:59:37;34.70;62.30
4374;DHT22;2201;51.100;6.814;2023-06-10T10:02:05;34.70;62.40
4374;DHT22;2201;51.100;6.814;2023-06-10T10:04:35;34.90;60.40
4374;DHT22;2201;51.100;6.814;2023-06-10T10:07:04;35.10;60.60
4374;DHT22;2201;51.100;6.814;2023-06-10T10:09:32;35.30;60.60
4374;DHT22;2201;51.100;6.814;2023-06-10T10:12:01;35.50;60.10
4374;DHT22;2201;51.100;6.814;2023-06-10T10:14:28;35.50;60.70
4374;DHT22;2201;51.100;6.814;2023-06-10T10:16:59;35.50;60.50
4374;DHT22;2201;51.100;6.814;2023-06-10T10:19:28;35.60;59.30
4374;DHT22;2201;51.100;6.814;2023-06-10T10:22:03;35.70;60.50
4374;DHT22;2201;51.100;6.814;2023-06-10T10:24:34;35.80;62.20
4374;DHT22;2201;51.100;6.814;2023-06-10T10:27:16;35.70;60.20
4374;DHT22;2201;51.100;6.814;2023-06-10T10:29:47;35.50;59.20
4374;DHT22;2201;51.100;6.814;2023-06-10T10:32:16;35.30;59.20
4374;DHT22;2201;51.100;6.814;2023-06-10T10:34:51;35.50;59.20
4374;DHT22;2201;51.100;6.814;2023-06-10T10:37:20;35.60;59.20
4374;DHT22;2201;51.100;6.814;2023-06-10T10:39:47;35.40;60.00
4374;DHT22;2201;51.100;6.814;2023-06-10T10:42:16;35.30;61.30
4374;DHT22;2201;51.100;6.814;2023-06-10T10:44:46;35.50;61.30
4374;DHT22;2201;51.100;6.814;2023-06-10T10:47:16;35.40;60.90
4374;DHT22;2201;51.100;6.814;2023-06-10T10:49:50;35.40;61.60
4374;DHT22;2201;51.100;6.814;2023-06-10T10:52:21;35.10;61.40
4374;DHT22;2201;51.100;6.814;2023-06-10T10:54:53;35.00;62.10
4374;DHT22;2201;51.100;6.814;2023-06-10T10:57:23;34.80;62.10
4374;DHT22;2201;51.100;6.814;2023-06-10T10:59:58;34.80;61.40
4374;DHT22;2201;51.100;6.814;2023-06-10T11:02:40;34.50;62.10
4374;DHT22;2201;51.100;6.814;2023-06-10T11:05:09;34.30;61.20
4374;DHT22;2201;51.100;6.814;2023-06-10T11:07:37;34.10;62.30
4374;DHT22;2201;51.100;6.814;2023-06-10T11:10:06;33.90;63.20
4374;DHT22;2201;51.100;6.814;2023-06-10T11:12:52;33.80;62.70
4374;DHT22;2201;51.100;6.814;2023-06-10T11:15:20;33.90;63.70
4374;DHT22;2201;51.100;6.814;2023-06-10T11:18:11;34.20;62.80
4374;DHT22;2201;51.100;6.814;2023-06-10T11:20:45;34.60;62.70
4374;DHT22;2201;51.100;6.814;2023-06-10T11:23:40;35.00;61.30
4374;DHT22;2201;51.100;6.814;2023-06-10T11:29:18;35.80;61.80
4374;DHT22;2201;51.100;6.814;2023-06-10T11:31:49;36.30;60.00
4374;DHT22;2201;51.100;6.814;2023-06-10T11:34:22;36.40;58.60
4374;DHT22;2201;51.100;6.814;2023-06-10T11:36:51;36.30;57.40
4374;DHT22;2201;51.100;6.814;2023-06-10T11:39:21;35.90;57.80
4374;DHT22;2201;51.100;6.814;2023-06-10T11:41:51;35.40;58.10
4374;DHT22;2201;51.100;6.814;2023-06-10T11:44:20;34.90;58.70
4374;DHT22;2201;51.100;6.814;2023-06-10T11:46:48;34.50;59.00
4374;DHT22;2201;51.100;6.814;2023-06-10T11:49:15;34.20;60.40
4374;DHT22;2201;51.100;6.814;2023-06-10T11:51:43;33.90;61.00
4374;DHT22;2201;51.100;6.814;2023-06-10T11:54:14;33.60;61.30
4374;DHT22;2201;51.100;6.814;2023-06-10T11:56:42;33.40;61.80
4374;DHT22;2201;51.100;6.814;2023-06-10T11:59:09;33.40;60.80
4374;DHT22;2201;51.100;6.814;2023-06-10T12:01:40;33.60;60.00
4374;DHT22;2201;51.100;6.814;2023-06-10T12:04:11;33.90;59.40
4374;DHT22;2201;51.100;6.814;2023-06-10T12:06:40;34.50;58.70
4374;DHT22;2201;51.100;6.814;2023-06-10T12:09:12;35.00;58.00
4374;DHT22;2201;51.100;6.814;2023-06-10T12:11:39;35.10;58.40
4374;DHT22;2201;51.100;6.814;2023-06-10T12:14:06;34.90;57.60
4374;DHT22;2201;51.100;6.814;2023-06-10T12:16:37;34.40;58.80
4374;DHT22;2201;51.100;6.814;2023-06-10T12:19:05;34.10;59.00
4374;DHT22;2201;51.100;6.814;2023-06-10T12:21:33;33.90;60.30
4374;DHT22;2201;51.100;6.814;2023-06-10T12:24:03;33.90;60.50
4374;DHT22;2201;51.100;6.814;2023-06-10T12:26:35;33.80;60.30
4374;DHT22;2201;51.100;6.814;2023-06-10T12:29:11;33.60;60.10
4374;DHT22;2201;51.100;6.814;2023-06-10T12:31:58;33.60;61.30
4374;DHT22;2201;51.100;6.814;2023-06-10T12:34:36;33.40;60.40
4374;DHT22;2201;51.100;6.814;2023-06-10T12:37:04;33.30;62.00
4374;DHT22;2201;51.100;6.814;2023-06-10T12:39:32;33.50;61.60
4374;DHT22;2201;51.100;6.814;2023-06-10T12:42:00;33.50;61.90
4374;DHT22;2201;51.100;6.814;2023-06-10T12:44:34;33.40;62.80
4374;DHT22;2201;51.100;6.814;2023-06-10T12:47:09;33.30;62.60
4374;DHT22;2201;51.100;6.814;2023-06-10T12:49:38;33.20;63.90
4374;DHT22;2201;51.100;6.814;2023-06-10T12:52:05;33.20;62.80
4374;DHT22;2201;51.100;6.814;2023-06-10T12:54:32;33.20;62.80
4374;DHT22;2201;51.100;6.814;2023-06-10T12:57:00;33.20;62.90
4374;DHT22;2201;51.100;6.814;2023-06-10T12:59:27;33.20;63.40
4374;DHT22;2201;51.100;6.814;2023-06-10T13:01:55;33.00;63.30
4374;DHT22;2201;51.100;6.814;2023-06-10T13:04:27;33.20;64.10
4374;DHT22;2201;51.100;6.814;2023-06-10T13:06:54;33.40;63.20
4374;DHT22;2201;51.100;6.814;2023-06-10T13:09:21;33.70;61.50
4374;DHT22;2201;51.100;6.814;2023-06-10T13:11:49;34.10;61.90
4374;DHT22;2201;51.100;6.814;2023-06-10T13:14:16;34.40;60.60
4374;DHT22;2201;51.100;6.814;2023-06-10T13:16:44;34.50;59.60
4374;DHT22;2201;51.100;6.814;2023-06-10T13:19:11;34.60;59.50
4374;DHT22;2201;51.100;6.814;2023-06-10T13:21:40;34.80;58.60
4374;DHT22;2201;51.100;6.814;2023-06-10T13:24:09;34.80;57.90
4374;DHT22;2201;51.100;6.814;2023-06-10T13:26:37;34.60;58.70
4374;DHT22;2201;51.100;6.814;2023-06-10T13:29:04;34.40;59.50
4374;DHT22;2201;51.100;6.814;2023-06-10T13:31:31;34.40;58.10
4374;DHT22;2201;51.100;6.814;2023-06-10T13:34:01;34.40;59.20
4374;DHT22;2201;51.100;6.814;2023-06-10T13:36:28;34.40;57.90
4374;DHT22;2201;51.100;6.814;2023-06-10T13:38:57;34.30;57.00
4374;DHT22;2201;51.100;6.814;2023-06-10T13:41:24;34.50;57.70
4374;DHT22;2201;51.100;6.814;2023-06-10T13:43:54;34.80;57.50
4374;DHT22;2201;51.100;6.814;2023-06-10T13:46:21;35.20;54.90
4374;DHT22;2201;51.100;6.814;2023-06-10T13:48:48;35.50;54.50
4374;DHT22;2201;51.100;6.814;2023-06-10T13:51:16;35.80;53.10
4374;DHT22;2201;51.100;6.814;2023-06-10T13:53:43;36.10;54.40
4374;DHT22;2201;51.100;6.814;2023-06-10T13:56:12;36.30;54.60
4374;DHT22;2201;51.100;6.814;2023-06-10T13:58:42;36.60;53.80
4374;DHT22;2201;51.100;6.814;2023-06-10T14:01:09;36.80;53.60
4374;DHT22;2201;51.100;6.814;2023-06-10T14:03:37;37.00;53.30
4374;DHT22;2201;51.100;6.814;2023-06-10T14:06:04;36.80;52.60
4374;DHT22;2201;51.100;6.814;2023-06-10T14:08:32;36.50;52.80
4374;DHT22;2201;51.100;6.814;2023-06-10T14:10:59;36.10;54.30
4374;DHT22;2201;51.100;6.814;2023-06-10T14:13:28;35.60;55.70
4374;DHT22;2201;51.100;6.814;2023-06-10T14:15:55;35.00;57.20
4374;DHT22;2201;51.100;6.814;2023-06-10T14:18:23;34.40;57.60
4374;DHT22;2201;51.100;6.814;2023-06-10T14:20:50;33.80;58.40
4374;DHT22;2201;51.100;6.814;2023-06-10T14:23:17;33.30;59.80
4374;DHT22;2201;51.100;6.814;2023-06-10T14:26:02;32.90;60.20
4374;DHT22;2201;51.100;6.814;2023-06-10T14:28:32;32.60;61.70
4374;DHT22;2201;51.100;6.814;2023-06-10T14:31:00;32.30;61.90
4374;DHT22;2201;51.100;6.814;2023-06-10T14:33:26;32.00;62.80
4374;DHT22;2201;51.100;6.814;2023-06-10T14:35:53;31.80;63.10
4374;DHT22;2201;51.100;6.814;2023-06-10T14:38:21;31.60;62.80
4374;DHT22;2201;51.100;6.814;2023-06-10T14:40:48;31.50;63.00
4374;DHT22;2201;51.100;6.814;2023-06-10T14:43:15;31.40;63.00
4374;DHT22;2201;51.100;6.814;2023-06-10T14:45:43;31.40;63.80
4374;DHT22;2201;51.100;6.814;2023-06-10T14:48:11;31.30;63.40
4374;DHT22;2201;51.100;6.814;2023-06-10T14:50:38;31.20;63.50
4374;DHT22;2201;51.100;6.814;2023-06-10T14:53:06;31.20;63.70
4374;DHT22;2201;51.100;6.814;2023-06-10T14:55:33;31.20;63.50
4374;DHT22;2201;51.100;6.814;2023-06-10T14:58:00;31.20;64.60
4374;DHT22;2201;51.100;6.814;2023-06-10T15:00:27;31.30;64.70
4374;DHT22;2201;51.100;6.814;2023-06-10T15:02:56;31.30;63.90
4374;DHT22;2201;51.100;6.814;2023-06-10T15:05:23;31.30;63.90
4374;DHT22;2201;51.100;6.814;2023-06-10T15:07:50;31.20;64.50
4374;DHT22;2201;51.100;6.814;2023-06-10T15:10:17;31.20;64.30
4374;DHT22;2201;51.100;6.814;2023-06-10T15:12:47;31.20;64.50
4374;DHT22;2201;51.100;6.814;2023-06-10T15:15:21;31.10;65.10
4374;DHT22;2201;51.100;6.814;2023-06-10T15:17:48;31.10;64.40
4374;DHT22;2201;51.100;6.814;2023-06-10T15:20:17;31.30;64.10
4374;DHT22;2201;51.100;6.814;2023-06-10T15:22:44;31.60;64.10
4374;DHT22;2201;51.100;6.814;2023-06-10T15:25:11;31.70;63.50
4374;DHT22;2201;51.100;6.814;2023-06-10T15:27:38;31.70;60.50
4374;DHT22;2201;51.100;6.814;2023-06-10T15:30:06;31.60;60.30
4374;DHT22;2201;51.100;6.814;2023-06-10T15:32:34;31.70;59.30
4374;DHT22;2201;51.100;6.814;2023-06-10T15:35:01;31.80;59.00
4374;DHT22;2201;51.100;6.814;2023-06-10T15:37:30;31.90;59.70
4374;DHT22;2201;51.100;6.814;2023-06-10T15:39:57;32.10;59.90
4374;DHT22;2201;51.100;6.814;2023-06-10T15:42:24;32.30;58.90
4374;DHT22;2201;51.100;6.814;2023-06-10T15:44:51;32.40;59.10
4374;DHT22;2201;51.100;6.814;2023-06-10T15:47:19;32.60;58.00
4374;DHT22;2201;51.100;6.814;2023-06-10T15:49:46;32.90;57.90
4374;DHT22;2201;51.100;6.814;2023-06-10T15:52:13;33.10;59.10
4374;DHT22;2201;51.100;6.814;2023-06-10T15:54:42;33.10;58.10
4374;DHT22;2201;51.100;6.814;2023-06-10T15:57:09;32.90;58.70
4374;DHT22;2201;51.100;6.814;2023-06-10T15:59:36;32.70;58.60
4374;DHT22;2201;51.100;6.814;2023-06-10T16:02:03;32.70;60.00
4374;DHT22;2201;51.100;6.814;2023-06-10T16:04:30;32.60;59.50
4374;DHT22;2201;51.100;6.814;2023-06-10T16:06:57;32.60;59.60
4374;DHT22;2201;51.100;6.814;2023-06-10T16:09:24;32.40;60.10
4374;DHT22;2201;51.100;6.814;2023-06-10T16:11:52;32.20;60.10
4374;DHT22;2201;51.100;6.814;2023-06-10T16:14:20;32.10;56.50
4374;DHT22;2201;51.100;6.814;2023-06-10T16:16:47;31.90;56.70
4374;DHT22;2201;51.100;6.814;2023-06-10T16:19:14;31.70;55.10
4374;DHT22;2201;51.100;6.814;2023-06-10T16:21:41;31.40;56.10
4374;DHT22;2201;51.100;6.814;2023-06-10T16:24:08;31.20;56.50
4374;DHT22;2201;51.100;6.814;2023-06-10T16:26:36;31.00;56.50